Terminal Aerodrome Forecast
Issued by NWS

Home | Current Version | Previous Version | Text Only | Print | Product List | Glossary Off
Versions: 1 2 3 4 5 6 7 8 9 10 11 12 13 14 15 16 17 18 19 20 21 22 23 24 25 26

000
FTUS43 KABR 300400 AAC
TAFATY
TAF AMD
KATY 300439Z 3005/3024 34011KT P6SM VCSH OVC009
     FM301400 VRB05KT P6SM BKN015
     FM301900 VRB05KT P6SM SCT015=

USA.gov is the U.S. government's official web portal to all federal, state and local government web resources and services.